Time;durP1;ratioP1;P1;durP2;ratioP2;P2;SDS_P1;SDS_P2;PMS_P1;PMS_P2;Temp;Humidity;BMP_temperature;BMP_pressure;BME280_temperature;BME280_humidity;BME280_pressure;Samples;Min_cycle;Max_cycle;Signal;HPM_P1;HPM_P2
2021/12/14 00:02:18;;;;;;;21.20;11.85;;;4.60;99.90;;;;;;5029551;28;20030;-82
2021/12/14 00:04:45;;;;;;;19.48;11.05;;;4.50;99.90;;;;;;5028490;28;20108;-81
2021/12/14 00:07:14;;;;;;;18.75;11.20;;;4.50;99.90;;;;;;5012277;28;20137;-82
2021/12/14 00:09:42;;;;;;;19.90;10.45;;;4.50;99.90;;;;;;5009622;28;20102;-82
2021/12/14 00:15:04;;;;;;;16.63;9.52;;;4.50;99.90;;;;;;5009987;28;20030;-81
2021/12/14 00:17:45;;;;;;;16.58;9.10;;;4.50;99.90;;;;;;5015888;28;20101;-84
2021/12/14 00:20:20;;;;;;;15.20;8.93;;;4.50;99.90;;;;;;5016460;28;20062;-83
2021/12/14 00:25:36;;;;;;;12.98;7.65;;;4.40;99.90;;;;;;5028037;28;20026;-83
2021/12/14 00:28:11;;;;;;;14.57;8.13;;;4.40;99.90;;;;;;5028789;28;20025;-81
2021/12/14 00:30:39;;;;;;;21.77;11.13;;;4.50;99.90;;;;;;5028370;28;20037;-83
2021/12/14 00:33:12;;;;;;;16.45;9.40;;;4.60;99.90;;;;;;5028603;28;20029;-83
2021/12/14 00:35:39;;;;;;;16.45;8.85;;;4.50;99.90;;;;;;5009999;28;20036;-81
2021/12/14 00:38:07;;;;;;;15.80;8.93;;;4.50;99.90;;;;;;5010853;28;20034;-82
2021/12/14 00:40:41;;;;;;;16.42;8.95;;;4.50;99.90;;;;;;5031273;28;20048;-82
2021/12/14 00:43:10;;;;;;;17.45;9.38;;;4.50;99.90;;;;;;5011209;28;20030;-79
2021/12/14 00:45:40;;;;;;;14.27;9.10;;;4.40;99.90;;;;;;5010181;28;20022;-83
2021/12/14 00:48:08;;;;;;;15.20;8.93;;;4.40;99.90;;;;;;5000028;28;20027;-82
2021/12/14 00:50:35;;;;;;;11.57;6.53;;;4.40;99.90;;;;;;5008497;28;20027;-81
2021/12/14 00:53:15;;;;;;;12.45;7.00;;;4.30;99.90;;;;;;5009235;28;20061;-81
2021/12/14 00:55:44;;;;;;;12.10;6.70;;;4.20;99.90;;;;;;5006699;28;20017;-80
2021/12/14 00:58:11;;;;;;;10.60;6.95;;;4.20;99.90;;;;;;5018013;28;20545;-80
2021/12/14 01:00:45;;;;;;;12.75;7.05;;;4.20;99.90;;;;;;5008714;28;20023;-81
2021/12/14 01:03:13;;;;;;;13.25;7.22;;;4.10;99.90;;;;;;5008096;28;20030;-80
2021/12/14 01:05:45;;;;;;;10.65;5.88;;;4.10;99.90;;;;;;5007614;28;20053;-82
2021/12/14 01:08:15;;;;;;;13.18;7.05;;;4.10;99.90;;;;;;5019120;28;20030;-83
2021/12/14 01:10:50;;;;;;;11.35;5.97;;;4.10;99.90;;;;;;5028935;28;20117;-81
2021/12/14 01:13:19;;;;;;;16.13;7.15;;;4.10;99.90;;;;;;5028864;28;20072;-82
2021/12/14 01:16:01;;;;;;;10.68;6.20;;;4.00;99.90;;;;;;5029553;28;20022;-80
2021/12/14 01:21:17;;;;;;;8.77;5.65;;;4.00;99.90;;;;;;5027227;28;20033;-80
2021/12/14 01:23:45;;;;;;;10.25;6.32;;;4.00;99.90;;;;;;5011883;28;20424;-82
2021/12/14 01:26:16;;;;;;;12.23;6.63;;;3.90;99.90;;;;;;5027785;28;20080;-84
2021/12/14 01:28:44;;;;;;;11.02;5.75;;;3.80;99.90;;;;;;5024950;28;20367;-81
2021/12/14 01:31:20;;;;;;;11.02;6.22;;;3.80;99.90;;;;;;5027725;28;20018;-82
2021/12/14 01:33:50;;;;;;;9.93;5.68;;;3.80;99.90;;;;;;5027124;28;20106;-83
2021/12/14 01:36:41;;;;;;;9.57;5.40;;;3.80;99.90;;;;;;5029027;28;20032;-80
2021/12/14 01:42:01;;;;;;;10.18;6.05;;;3.90;99.90;;;;;;5007306;28;20033;-83
2021/12/14 01:44:37;;;;;;;9.68;5.72;;;3.90;99.90;;;;;;4992136;28;20026;-81
2021/12/14 01:47:10;;;;;;;8.43;5.40;;;3.80;99.90;;;;;;4984168;28;20049;-79
2021/12/14 01:49:40;;;;;;;;;;;3.80;99.90;;;;;;5000512;28;20040;-80
2021/12/14 01:52:20;;;;;;;8.63;4.97;;;3.70;99.90;;;;;;5008524;28;19916;-82
2021/12/14 01:54:52;;;;;;;8.75;4.57;;;3.80;99.90;;;;;;5014130;28;20022;-83
2021/12/14 01:57:22;;;;;;;8.48;4.95;;;3.80;99.90;;;;;;5016908;28;20119;-79
2021/12/14 01:59:54;;;;;;;6.97;4.90;;;3.70;99.90;;;;;;5034606;28;20045;-82
2021/12/14 02:02:31;;;;;;;8.93;5.63;;;3.60;99.90;;;;;;5032897;28;20041;-81
2021/12/14 02:05:00;;;;;;;6.05;4.07;;;3.50;99.90;;;;;;5037135;28;20014;-81
2021/12/14 02:07:27;;;;;;;6.50;4.25;;;3.50;99.90;;;;;;5038866;28;20006;-80
2021/12/14 02:09:57;;;;;;;6.45;4.18;;;3.50;99.90;;;;;;5032736;28;20080;-80
2021/12/14 02:12:26;;;;;;;5.85;3.90;;;3.50;99.90;;;;;;4998746;28;20041;-82
2021/12/14 02:14:59;;;;;;;6.63;3.42;;;3.50;99.90;;;;;;4995712;28;20034;-83
2021/12/14 02:17:25;;;;;;;6.28;3.72;;;3.50;99.90;;;;;;5009920;28;20030;-83
2021/12/14 02:19:52;;;;;;;6.05;3.92;;;3.60;99.90;;;;;;5006852;28;20010;-82
2021/12/14 02:22:18;;;;;;;5.65;3.88;;;3.60;99.90;;;;;;5009852;28;20026;-83
2021/12/14 02:24:50;;;;;;;5.57;3.80;;;3.50;99.90;;;;;;4990550;28;20069;-83
2021/12/14 02:27:16;;;;;;;5.85;3.85;;;3.40;99.90;;;;;;5007747;28;20026;-83
2021/12/14 02:29:45;;;;;;;6.93;4.30;;;3.30;99.90;;;;;;5011636;28;20057;-83
2021/12/14 02:32:16;;;;;;;5.40;3.75;;;3.20;99.90;;;;;;4991973;28;20090;-82
2021/12/14 02:34:49;;;;;;;6.90;4.43;;;3.20;99.90;;;;;;4990525;28;20103;-83
2021/12/14 02:37:16;;;;;;;5.28;3.30;;;3.30;99.90;;;;;;4992640;28;20098;-83
2021/12/14 02:42:25;;;;;;;6.22;3.45;;;3.30;99.90;;;;;;5014064;28;20054;-83
2021/12/14 02:44:54;;;;;;;4.50;3.10;;;3.20;99.90;;;;;;5008568;28;20028;-83
2021/12/14 02:47:22;;;;;;;4.72;3.40;;;3.20;99.90;;;;;;4996322;28;20030;-81
2021/12/14 02:49:51;;;;;;;4.15;2.92;;;3.10;99.90;;;;;;5005973;28;20058;-83
2021/12/14 02:52:33;;;;;;;3.75;2.72;;;3.10;99.90;;;;;;5008932;28;20022;-82
2021/12/14 02:55:21;;;;;;;3.72;2.92;;;3.10;99.90;;;;;;4989559;28;20026;-83
2021/12/14 02:57:52;;;;;;;4.68;3.22;;;3.00;99.90;;;;;;5014323;28;20026;-81
2021/12/14 03:00:25;;;;;;;3.77;2.60;;;3.00;99.90;;;;;;4992296;28;20027;-83
2021/12/14 03:02:52;;;;;;;5.03;3.20;;;3.00;99.90;;;;;;5004672;28;20033;-83
2021/12/14 03:05:25;;;;;;;5.22;3.25;;;2.90;99.90;;;;;;4993547;28;20026;-82
2021/12/14 03:08:03;;;;;;;5.10;3.40;;;2.90;99.90;;;;;;5013010;28;20041;-81
2021/12/14 03:10:35;;;;;;;5.38;3.28;;;2.90;99.90;;;;;;5007123;28;20084;-83
2021/12/14 03:13:07;;;;;;;5.32;3.42;;;2.90;99.90;;;;;;5006560;28;20084;-83
2021/12/14 03:15:46;;;;;;;5.78;2.78;;;2.90;99.90;;;;;;5007988;28;20030;-82
2021/12/14 03:18:16;;;;;;;6.25;3.80;;;2.90;99.90;;;;;;5006263;28;20061;-82
2021/12/14 03:20:58;;;;;;;7.95;3.97;;;2.90;99.90;;;;;;4999160;28;20041;-81
2021/12/14 03:23:29;;;;;;;5.32;3.17;;;2.90;99.90;;;;;;5017594;28;20042;-81
2021/12/14 03:25:58;;;;;;;5.25;3.53;;;2.90;99.90;;;;;;5009635;28;20030;-81
2021/12/14 03:28:26;;;;;;;7.20;4.18;;;3.00;99.90;;;;;;5008650;28;20055;-83
2021/12/14 03:31:16;;;;;;;5.25;3.25;;;3.00;99.90;;;;;;5002003;28;20030;-82
2021/12/14 03:33:55;;;;;;;5.28;3.60;;;2.90;99.90;;;;;;5030472;28;20018;-81
2021/12/14 03:36:27;;;;;;;6.20;3.33;;;2.80;99.90;;;;;;5032224;28;20033;-83
2021/12/14 03:38:59;;;;;;;5.40;3.13;;;2.70;99.90;;;;;;5029575;28;20022;-83
2021/12/14 03:41:30;;;;;;;4.55;3.15;;;2.70;99.90;;;;;;4998329;28;20140;-82
2021/12/14 03:44:22;;;;;;;6.45;3.47;;;2.70;99.90;;;;;;5007019;28;20057;-82
2021/12/14 03:46:52;;;;;;;4.55;3.17;;;2.60;99.90;;;;;;4982019;28;20046;-82
2021/12/14 03:49:21;;;;;;;5.70;3.40;;;2.70;99.90;;;;;;5006255;28;20037;-82
2021/12/14 03:51:47;;;;;;;5.35;3.25;;;2.70;99.90;;;;;;5009510;28;20133;-83
2021/12/14 03:54:18;;;;;;;6.13;3.60;;;2.80;99.90;;;;;;5008885;28;20034;-82
2021/12/14 03:56:45;;;;;;;5.53;2.85;;;2.80;99.90;;;;;;5005368;28;20082;-82
2021/12/14 03:59:11;;;;;;;5.05;3.25;;;2.90;99.90;;;;;;5026970;28;20454;-81
2021/12/14 04:01:40;;;;;;;3.95;2.72;;;2.90;99.90;;;;;;5010025;28;20025;-81
2021/12/14 04:04:19;;;;;;;8.43;3.90;;;3.00;99.90;;;;;;5026379;28;20033;-81
2021/12/14 04:06:49;;;;;;;6.15;3.70;;;3.00;99.90;;;;;;5024254;28;20030;-82
2021/12/14 04:09:16;;;;;;;7.70;3.88;;;3.00;99.90;;;;;;5009600;28;20031;-82
2021/12/14 04:11:43;;;;;;;5.72;3.33;;;3.00;99.90;;;;;;4990472;28;20026;-82
2021/12/14 04:14:10;;;;;;;8.65;3.50;;;2.90;99.90;;;;;;4986837;28;20108;-82
2021/12/14 04:16:39;;;;;;;7.55;3.70;;;3.00;99.90;;;;;;5005242;28;20027;-82
2021/12/14 04:19:10;;;;;;;7.65;3.97;;;2.90;99.90;;;;;;5009024;28;20026;-80
2021/12/14 04:21:40;;;;;;;7.45;3.63;;;2.90;99.90;;;;;;4999380;28;20050;-80
2021/12/14 04:24:08;;;;;;;6.95;3.38;;;2.90;99.90;;;;;;5015671;28;20105;-78
2021/12/14 04:26:34;;;;;;;5.45;3.20;;;3.00;99.90;;;;;;5015998;28;20053;-79
2021/12/14 04:29:01;;;;;;;6.05;3.10;;;2.90;99.90;;;;;;5033043;28;20030;-81
2021/12/14 04:31:27;;;;;;;6.45;2.67;;;2.90;99.90;;;;;;5040981;28;20030;-79
2021/12/14 04:33:56;;;;;;;6.68;2.80;;;2.90;99.90;;;;;;5036513;28;20037;-78
2021/12/14 04:36:26;;;;;;;6.10;3.25;;;2.90;99.90;;;;;;5019127;28;20022;-80
2021/12/14 04:39:07;;;;;;;6.65;3.22;;;3.00;99.90;;;;;;5030153;28;20026;-82
2021/12/14 04:52:43;;;;;;;7.15;2.67;;;3.00;99.90;;;;;;5029662;28;20029;-77
2021/12/14 04:55:11;;;;;;;6.20;2.80;;;3.10;99.90;;;;;;5015618;28;20313;-78
2021/12/14 04:57:44;;;;;;;5.82;2.35;;;3.10;99.90;;;;;;5018775;28;20481;-76
2021/12/14 05:00:19;;;;;;;4.10;2.15;;;3.00;99.90;;;;;;5018767;28;20094;-76
2021/12/14 05:02:46;;;;;;;4.88;2.17;;;2.90;99.90;;;;;;5010075;28;20053;-77
2021/12/14 05:05:18;;;;;;;3.60;2.03;;;2.80;99.90;;;;;;5017802;28;20030;-77
2021/12/14 05:11:07;;;;;;;4.88;2.42;;;2.70;99.90;;;;;;5019737;28;20045;-76
2021/12/14 05:13:45;;;;;;;4.72;2.20;;;2.60;99.90;;;;;;5002514;28;20061;-77
2021/12/14 05:16:26;;;;;;;4.50;3.15;;;2.50;99.90;;;;;;5019457;28;20029;-77
2021/12/14 05:18:56;;;;;;;4.72;2.30;;;2.40;99.90;;;;;;5017907;28;20126;-77
2021/12/14 05:21:36;;;;;;;4.38;2.22;;;2.40;99.90;;;;;;4987414;28;20053;-76
2021/12/14 05:24:05;;;;;;;4.07;2.20;;;2.30;99.90;;;;;;4985121;28;20033;-77
2021/12/14 05:26:31;;;;;;;4.43;2.08;;;2.40;99.90;;;;;;5004127;28;20022;-77
2021/12/14 05:28:57;;;;;;;2.78;1.90;;;2.40;99.90;;;;;;5012747;28;20056;-76
2021/12/14 05:31:23;;;;;;;3.28;2.08;;;2.40;99.90;;;;;;5024736;28;20108;-79
2021/12/14 05:33:49;;;;;;;3.55;1.90;;;2.30;99.90;;;;;;5028816;28;20026;-79
2021/12/14 05:36:18;;;;;;;2.80;1.65;;;2.30;99.90;;;;;;5026890;28;20018;-79
2021/12/14 05:38:59;;;;;;;4.25;2.40;;;2.30;99.90;;;;;;5013917;28;20033;-79
2021/12/14 05:44:20;;;;;;;2.20;1.55;;;2.10;99.90;;;;;;5030152;28;20025;-79
2021/12/14 05:46:52;;;;;;;2.78;1.50;;;2.10;99.90;;;;;;5011798;28;20093;-78
2021/12/14 05:49:22;;;;;;;2.97;2.40;;;2.00;99.90;;;;;;5019013;28;20098;-78
2021/12/14 05:51:51;;;;;;;3.00;1.80;;;1.90;99.90;;;;;;5013380;28;20049;-78
2021/12/14 05:54:20;;;;;;;2.67;1.50;;;1.90;99.90;;;;;;5011414;28;20030;-79
2021/12/14 05:56:46;;;;;;;4.43;2.33;;;1.90;99.90;;;;;;5011608;28;20037;-78
2021/12/14 05:59:15;;;;;;;3.42;2.00;;;1.80;99.90;;;;;;5027355;28;20029;-78
2021/12/14 06:01:41;;;;;;;2.53;1.88;;;1.80;99.90;;;;;;5010443;28;20029;-78
2021/12/14 06:04:08;;;;;;;2.92;1.60;;;1.80;99.90;;;;;;5026436;28;20098;-78
2021/12/14 06:06:42;;;;;;;1.77;1.35;;;1.80;99.90;;;;;;5011242;28;20515;-78
2021/12/14 06:09:13;;;;;;;2.67;1.42;;;1.70;99.90;;;;;;5042462;28;20025;-77
2021/12/14 06:11:40;;;;;;;2.05;1.65;;;1.70;99.90;;;;;;5023832;28;20025;-79
2021/12/14 06:14:19;;;;;;;4.38;2.13;;;1.60;99.90;;;;;;5029912;28;20032;-78
2021/12/14 06:16:47;;;;;;;2.90;1.80;;;1.60;99.90;;;;;;5038442;28;20013;-79
2021/12/14 06:19:26;;;;;;;2.25;1.45;;;1.50;99.90;;;;;;5009992;28;20062;-79
2021/12/14 06:22:03;;;;;;;3.05;1.48;;;1.50;99.90;;;;;;5026982;28;20057;-79
2021/12/14 06:24:31;;;;;;;2.85;2.00;;;1.50;99.90;;;;;;5009367;28;20049;-80
2021/12/14 06:27:00;;;;;;;1.52;1.40;;;1.40;99.90;;;;;;5006223;28;20057;-79
2021/12/14 06:29:33;;;;;;;2.65;1.52;;;1.50;99.90;;;;;;5010305;28;20033;-79
2021/12/14 06:32:10;;;;;;;2.50;1.63;;;1.50;99.90;;;;;;5014856;28;20036;-79
2021/12/14 06:34:43;;;;;;;2.63;1.92;;;1.50;99.90;;;;;;4999322;28;20023;-79
2021/12/14 06:37:41;;;;;;;2.60;1.38;;;1.40;99.90;;;;;;5017027;28;20034;-79
2021/12/14 06:40:16;;;;;;;3.15;1.60;;;1.40;99.90;;;;;;5015415;28;20192;-79
2021/12/14 06:42:47;;;;;;;2.53;1.77;;;1.40;99.90;;;;;;5002012;28;20013;-79
2021/12/14 06:45:20;;;;;;;4.10;2.05;;;1.40;99.90;;;;;;5018462;28;20033;-78
2021/12/14 06:47:49;;;;;;;2.40;1.67;;;1.40;99.90;;;;;;5009233;28;20034;-79
2021/12/14 06:50:52;;;;;;;3.42;1.90;;;1.50;99.90;;;;;;5028992;28;20029;-81
2021/12/14 06:53:50;;;;;;;3.08;1.85;;;1.50;99.90;;;;;;5020917;28;20026;-80
2021/12/14 06:56:25;;;;;;;2.47;2.03;;;1.60;99.90;;;;;;5032521;28;20037;-81
2021/12/14 06:58:52;;;;;;;;;;;1.60;99.90;;;;;;5033707;28;20065;-82
2021/12/14 07:01:21;;;;;;;2.55;1.65;;;1.70;99.90;;;;;;5050281;28;19908;-81
2021/12/14 07:03:52;;;;;;;6.45;3.47;;;1.80;99.90;;;;;;5044626;28;20057;-80
2021/12/14 07:06:44;;;;;;;6.32;3.90;;;2.00;99.90;;;;;;5013110;28;20034;-80
2021/12/14 07:09:17;;;;;;;6.32;3.80;;;2.00;99.90;;;;;;5025986;28;20132;-82
2021/12/14 07:11:55;;;;;;;4.88;3.28;;;2.10;99.90;;;;;;5028927;28;20026;-81
2021/12/14 07:14:40;;;;;;;5.80;3.35;;;2.20;99.90;;;;;;5004532;28;20030;-81
2021/12/14 07:17:18;;;;;;;3.97;2.40;;;2.30;99.90;;;;;;5031283;28;20036;-81
2021/12/14 07:19:58;;;;;;;3.00;2.08;;;2.40;99.90;;;;;;5035501;28;20034;-81
2021/12/14 07:22:31;;;;;;;3.28;1.95;;;2.40;99.90;;;;;;5033401;28;20034;-81
2021/12/14 07:25:04;;;;;;;;;;;2.40;99.90;;;;;;5019130;28;20034;-82
2021/12/14 07:27:35;;;;;;;2.33;1.58;;;2.50;99.90;;;;;;5008857;28;19905;-81
2021/12/14 07:30:19;;;;;;;3.47;1.90;;;2.60;99.90;;;;;;5008374;28;20038;-81
2021/12/14 07:33:35;;;;;;;2.45;1.65;;;2.80;99.90;;;;;;5011450;28;20053;-81
2021/12/14 07:36:13;;;;;;;2.08;1.50;;;2.90;99.90;;;;;;5022835;28;20041;-82
2021/12/14 07:38:57;;;;;;;2.20;1.50;;;3.00;99.90;;;;;;5035617;28;20044;-81
2021/12/14 07:41:23;;;;;;;2.17;1.35;;;3.10;99.90;;;;;;5036841;28;20076;-81
2021/12/14 07:43:57;;;;;;;1.95;1.20;;;3.20;99.90;;;;;;5016165;28;20041;-81
2021/12/14 07:46:23;;;;;;;2.22;1.60;;;3.30;99.90;;;;;;5034803;28;20056;-83
2021/12/14 07:48:53;;;;;;;1.90;1.45;;;3.40;99.90;;;;;;5035973;28;20026;-82
2021/12/14 07:51:22;;;;;;;4.07;1.80;;;3.50;99.90;;;;;;5035133;28;20086;-83
2021/12/14 07:53:52;;;;;;;2.50;1.98;;;3.50;99.90;;;;;;5033077;28;20475;-83
2021/12/14 07:56:38;;;;;;;3.00;2.00;;;3.40;99.90;;;;;;5030178;28;20054;-82
2021/12/14 07:59:19;;;;;;;2.08;1.67;;;3.40;99.90;;;;;;5013921;28;20035;-84
2021/12/14 08:01:46;;;;;;;2.03;1.52;;;3.40;99.90;;;;;;5014612;28;20049;-84
2021/12/14 08:04:13;;;;;;;3.00;1.88;;;3.40;99.90;;;;;;5032685;28;20033;-83
2021/12/14 08:06:53;;;;;;;4.43;2.50;;;3.50;99.90;;;;;;5014616;28;20015;-84
2021/12/14 08:09:48;;;;;;;5.53;2.92;;;3.60;99.90;;;;;;5009911;28;20021;-84
2021/12/14 08:12:27;;;;;;;4.25;2.78;;;3.70;99.90;;;;;;5008502;28;20034;-84
2021/12/14 08:15:28;;;;;;;8.25;3.30;;;3.70;99.90;;;;;;5012807;28;20029;-84
2021/12/14 08:18:18;;;;;;;4.90;2.83;;;3.70;99.90;;;;;;5027353;28;20029;-84
2021/12/14 08:20:57;;;;;;;4.60;3.05;;;3.60;99.90;;;;;;5005771;28;20088;-84
2021/12/14 08:23:57;;;;;;;2.63;2.15;;;3.60;99.90;;;;;;5010713;28;20060;-84
2021/12/14 08:26:28;;;;;;;3.88;2.65;;;3.60;99.90;;;;;;5019834;28;20042;-83
2021/12/14 08:28:59;;;;;;;4.90;2.80;;;3.60;99.90;;;;;;5014653;28;20120;-84
2021/12/14 08:31:37;;;;;;;4.05;2.45;;;3.70;99.90;;;;;;5029005;28;20029;-84
2021/12/14 08:34:06;;;;;;;3.40;2.25;;;3.70;99.90;;;;;;5038240;28;20065;-83
2021/12/14 08:36:35;;;;;;;2.35;1.95;;;3.70;99.90;;;;;;5022396;28;20021;-83
2021/12/14 08:39:09;;;;;;;2.17;1.88;;;3.80;99.90;;;;;;5008739;28;20387;-83
2021/12/14 08:41:36;;;;;;;2.15;1.67;;;3.90;99.90;;;;;;4989702;28;20011;-85
2021/12/14 08:44:09;;;;;;;2.22;1.83;;;4.00;99.90;;;;;;4991360;28;20026;-84
2021/12/14 08:46:43;;;;;;;2.20;2.00;;;4.20;99.90;;;;;;5003849;28;20089;-85
2021/12/14 08:49:15;;;;;;;3.55;2.25;;;4.40;99.90;;;;;;4995630;28;20031;-81
2021/12/14 08:51:45;;;;;;;4.22;2.53;;;4.70;99.90;;;;;;4998429;28;20044;-83
2021/12/14 08:54:21;;;;;;;2.40;2.00;;;4.90;99.90;;;;;;5000586;28;20021;-83
2021/12/14 08:57:10;;;;;;;3.00;2.05;;;5.20;99.90;;;;;;5049431;28;20059;-82
2021/12/14 08:59:38;;;;;;;2.55;1.70;;;5.30;99.90;;;;;;5018779;28;20060;-82
2021/12/14 09:02:08;;;;;;;3.60;2.17;;;5.40;99.90;;;;;;5010682;28;20033;-83
2021/12/14 09:04:51;;;;;;;4.07;2.22;;;5.40;99.90;;;;;;5028790;28;20044;-83
2021/12/14 09:07:21;;;;;;;3.25;2.50;;;5.40;99.90;;;;;;5024840;28;20033;-83
2021/12/14 09:09:48;;;;;;;2.70;2.30;;;5.30;99.90;;;;;;5026955;28;20060;-84
2021/12/14 09:12:32;;;;;;;3.63;2.65;;;5.30;99.90;;;;;;5038335;28;20057;-84
2021/12/14 09:15:06;;;;;;;2.78;1.98;;;5.20;99.90;;;;;;5023465;28;20050;-84
2021/12/14 09:17:32;;;;;;;2.80;2.13;;;5.10;99.90;;;;;;5027176;28;20332;-82
2021/12/14 09:20:07;;;;;;;5.47;3.35;;;5.00;99.90;;;;;;5013772;28;20030;-83
2021/12/14 09:22:41;;;;;;;3.97;2.63;;;5.00;99.90;;;;;;5030367;28;20021;-84
2021/12/14 09:25:13;;;;;;;3.90;2.70;;;4.90;99.90;;;;;;5050472;28;20017;-84
2021/12/14 09:27:40;;;;;;;2.95;2.60;;;4.90;99.90;;;;;;5050531;28;20029;-85
2021/12/14 09:30:09;;;;;;;4.45;3.53;;;4.80;99.90;;;;;;5011216;28;20063;-82
2021/12/14 09:32:37;;;;;;;5.47;3.22;;;4.80;99.90;;;;;;5032833;28;20022;-84
2021/12/14 09:35:06;;;;;;;5.40;3.38;;;4.80;99.90;;;;;;5034753;28;20069;-82
2021/12/14 09:37:32;;;;;;;3.38;2.75;;;5.00;99.90;;;;;;5016171;28;20022;-83
2021/12/14 09:40:04;;;;;;;3.85;2.90;;;5.20;99.90;;;;;;5033870;28;20030;-83
2021/12/14 09:42:35;;;;;;;2.75;1.92;;;5.50;99.90;;;;;;5018446;28;20074;-83
2021/12/14 09:45:10;;;;;;;2.83;1.92;;;5.70;99.90;;;;;;5015679;28;20049;-84
2021/12/14 09:47:36;;;;;;;3.50;2.10;;;6.10;99.90;;;;;;5009319;28;20098;-84
2021/12/14 09:50:11;;;;;;;2.92;2.38;;;6.40;99.90;;;;;;5009901;28;20026;-76
2021/12/14 09:52:39;;;;;;;3.45;2.30;;;6.70;99.90;;;;;;5023882;28;20107;-76
2021/12/14 09:55:10;;;;;;;2.53;1.70;;;6.90;99.10;;;;;;5033705;28;20024;-83
2021/12/14 09:57:44;;;;;;;4.38;2.20;;;6.90;99.10;;;;;;5012680;28;20018;-84
2021/12/14 10:00:22;;;;;;;2.10;1.70;;;7.00;99.30;;;;;;5017825;28;20029;-85
2021/12/14 10:06:19;;;;;;;2.85;2.08;;;7.10;98.90;;;;;;4982637;28;20046;-83
2021/12/14 10:08:58;;;;;;;3.95;2.00;;;7.20;98.40;;;;;;5012718;28;20030;-83
2021/12/14 10:11:42;;;;;;;4.93;2.42;;;7.10;97.90;;;;;;5013260;28;20033;-83
2021/12/14 10:14:10;;;;;;;4.47;2.65;;;7.00;98.10;;;;;;5014441;28;20050;-84
2021/12/14 10:16:58;;;;;;;3.92;2.78;;;7.00;97.60;;;;;;5013559;28;20046;-83
2021/12/14 10:19:28;;;;;;;3.53;2.42;;;7.10;98.20;;;;;;5015733;28;20060;-84
2021/12/14 10:22:02;;;;;;;2.00;1.80;;;7.20;98.60;;;;;;4992630;28;20031;-83
2021/12/14 10:24:29;;;;;;;4.05;2.00;;;7.30;98.50;;;;;;5005897;28;20046;-83
2021/12/14 10:27:03;;;;;;;2.30;2.00;;;7.40;98.60;;;;;;5008402;28;20022;-84
2021/12/14 10:29:30;;;;;;;3.08;1.60;;;7.40;98.10;;;;;;5010607;28;20030;-84
2021/12/14 10:32:30;;;;;;;6.35;2.38;;;7.40;98.00;;;;;;5005054;28;20030;-84
2021/12/14 10:35:07;;;;;;;4.80;2.50;;;7.30;97.90;;;;;;5000907;28;20044;-84
2021/12/14 10:43:16;;;;;;;3.28;2.42;;;7.40;97.70;;;;;;5007289;28;20470;-83
2021/12/14 10:45:52;;;;;;;2.88;2.20;;;7.70;97.70;;;;;;5012830;28;20029;-84
2021/12/14 10:48:24;;;;;;;4.65;2.80;;;7.70;97.50;;;;;;5012523;28;20040;-83
2021/12/14 10:50:53;;;;;;;3.83;2.33;;;7.70;96.80;;;;;;5031725;28;20026;-84
2021/12/14 10:53:20;;;;;;;5.43;3.15;;;7.70;96.80;;;;;;5014393;28;20018;-84
2021/12/14 10:55:51;;;;;;;3.40;2.10;;;7.60;97.20;;;;;;5028446;28;20022;-83
2021/12/14 10:58:19;;;;;;;6.32;2.72;;;7.50;97.50;;;;;;5005587;28;20372;-84
2021/12/14 11:00:56;;;;;;;8.43;2.97;;;7.40;97.80;;;;;;5026466;28;20030;-83
2021/12/14 11:03:28;;;;;;;5.30;2.60;;;7.30;98.40;;;;;;5008747;28;20041;-83
2021/12/14 11:05:57;;;;;;;;;;;7.40;98.40;;;;;;5027260;28;20041;-83
2021/12/14 11:08:44;;;;;;;2.42;2.22;;;7.50;98.00;;;;;;5007607;28;19913;-82
2021/12/14 11:11:21;;;;;;;5.50;2.58;;;7.60;98.10;;;;;;5014126;28;20052;-84
2021/12/14 11:13:52;;;;;;;5.25;3.08;;;7.70;97.70;;;;;;5025198;28;20037;-83
2021/12/14 11:16:33;;;;;;;8.02;3.00;;;7.70;97.40;;;;;;5024854;28;20021;-84
2021/12/14 11:19:03;;;;;;;5.53;3.20;;;7.50;97.60;;;;;;5024896;28;20030;-83
2021/12/14 11:21:30;;;;;;;5.05;2.75;;;7.50;97.50;;;;;;5030339;28;20024;-83
2021/12/14 11:23:56;;;;;;;5.43;3.08;;;7.60;97.00;;;;;;4994341;28;20053;-83
2021/12/14 11:26:32;;;;;;;4.35;2.45;;;7.60;97.30;;;;;;4985973;28;20577;-83
2021/12/14 11:29:13;;;;;;;6.10;2.40;;;7.70;97.30;;;;;;4987362;28;20022;-83
2021/12/14 11:31:54;;;;;;;5.07;2.72;;;7.70;96.20;;;;;;5003535;28;20026;-83
2021/12/14 11:34:31;;;;;;;3.85;2.60;;;7.70;96.10;;;;;;5005077;28;20058;-83
2021/12/14 11:37:04;;;;;;;5.25;2.40;;;7.60;96.70;;;;;;5005162;28;20025;-83
2021/12/14 11:39:38;;;;;;;2.65;2.38;;;7.70;96.70;;;;;;5020725;28;20017;-84
2021/12/14 11:42:10;;;;;;;2.55;1.90;;;7.60;96.40;;;;;;5021471;28;20025;-83
2021/12/14 11:44:41;;;;;;;2.75;1.70;;;7.60;96.60;;;;;;5032128;28;20045;-83
2021/12/14 11:50:04;;;;;;;5.13;2.15;;;7.60;96.60;;;;;;5035193;28;20033;-84
2021/12/14 11:53:14;;;;;;;5.25;1.88;;;7.60;96.80;;;;;;5025988;28;20372;-83
2021/12/14 11:55:45;;;;;;;3.92;2.08;;;7.50;97.20;;;;;;5015117;28;20040;-83
2021/12/14 11:58:10;;;;;;;3.33;2.58;;;7.60;97.30;;;;;;5035539;28;20079;-83
2021/12/14 12:01:01;;;;;;;2.47;2.28;;;7.60;97.50;;;;;;5030478;28;20030;-83
2021/12/14 12:04:33;;;;;;;;;;;;;;;;;;;;;
2021/12/14 12:09:44;;;;;;;5.28;2.42;;;7.80;96.80;;;;;;5027136;28;20034;-83
2021/12/14 12:12:31;;;;;;;4.50;2.63;;;7.80;96.50;;;;;;5008836;28;20029;-83
2021/12/14 12:14:59;;;;;;;7.57;2.60;;;7.70;97.00;;;;;;5012595;28;20040;-83
2021/12/14 12:17:42;;;;;;;3.05;2.53;;;7.70;96.70;;;;;;5035289;28;20135;-83
2021/12/14 12:20:17;;;;;;;4.10;2.88;;;7.70;96.80;;;;;;5007178;28;20022;-84
2021/12/14 12:22:43;;;;;;;4.50;3.53;;;7.80;97.00;;;;;;5027343;28;20041;-83
2021/12/14 12:25:12;;;;;;;5.40;2.90;;;7.80;96.40;;;;;;5006303;28;20022;-83
2021/12/14 12:27:45;;;;;;;4.40;3.03;;;7.80;96.30;;;;;;4991039;28;20099;-83
2021/12/14 12:30:43;;;;;;;5.60;3.22;;;7.70;96.40;;;;;;4986934;28;20031;-84
2021/12/14 12:33:20;;;;;;;3.80;3.40;;;7.70;96.50;;;;;;4978746;28;20049;-83
2021/12/14 12:35:47;;;;;;;3.85;3.33;;;7.70;96.60;;;;;;5026077;28;20037;-83
2021/12/14 12:38:34;;;;;;;7.50;3.88;;;7.70;96.70;;;;;;5009775;28;20109;-83
2021/12/14 12:41:45;;;;;;;3.75;2.85;;;7.60;96.70;;;;;;5004077;28;20036;-84
2021/12/14 12:44:39;;;;;;;9.60;3.72;;;7.60;97.20;;;;;;4996610;28;20044;-83
2021/12/14 12:47:09;;;;;;;6.50;3.70;;;7.60;96.90;;;;;;5000628;28;20030;-83
2021/12/14 12:49:44;;;;;;;4.93;3.88;;;7.60;97.10;;;;;;5021283;28;20101;-82
2021/12/14 12:52:26;;;;;;;5.68;3.63;;;7.50;97.50;;;;;;5022933;28;20018;-82
2021/12/14 12:54:56;;;;;;;5.13;3.95;;;7.50;97.90;;;;;;5003053;28;20153;-81
2021/12/14 12:57:36;;;;;;;4.35;3.20;;;7.50;97.10;;;;;;4983030;28;20110;-83
2021/12/14 13:00:16;;;;;;;6.38;4.07;;;7.50;97.60;;;;;;5000932;28;20026;-84
2021/12/14 13:02:49;;;;;;;5.20;3.72;;;7.40;97.50;;;;;;5007061;28;20085;-82
2021/12/14 13:05:26;;;;;;;3.47;2.70;;;7.40;97.80;;;;;;5016175;28;20532;-84
2021/12/14 13:08:04;;;;;;;4.30;3.30;;;7.40;98.10;;;;;;5028022;28;20056;-83
2021/12/14 13:10:35;;;;;;;6.03;3.50;;;7.40;98.20;;;;;;5010139;28;20092;-83
2021/12/14 13:13:24;;;;;;;4.57;3.03;;;7.40;98.10;;;;;;5008160;28;20033;-83
2021/12/14 13:16:20;;;;;;;4.45;3.25;;;7.40;98.00;;;;;;5029552;28;20018;-81
2021/12/14 13:19:09;;;;;;;3.13;2.80;;;7.50;98.10;;;;;;5030601;28;20018;-82
2021/12/14 13:21:52;;;;;;;3.58;3.05;;;7.50;98.00;;;;;;5030592;28;20363;-82
2021/12/14 13:24:37;;;;;;;6.22;3.28;;;7.50;98.00;;;;;;5030571;28;20080;-82
2021/12/14 13:27:17;;;;;;;7.30;4.60;;;7.60;98.10;;;;;;5012693;28;20031;-81
2021/12/14 13:29:58;;;;;;;8.10;4.80;;;7.60;98.00;;;;;;5005940;28;20054;-85
2021/12/14 13:32:30;;;;;;;6.78;4.28;;;7.60;97.80;;;;;;5006884;28;20042;-84
2021/12/14 13:35:01;;;;;;;7.13;3.88;;;7.60;97.80;;;;;;4987432;28;20038;-83
2021/12/14 13:37:33;;;;;;;4.45;3.50;;;7.60;97.80;;;;;;5020343;28;20022;-84
2021/12/14 13:40:01;;;;;;;8.68;3.97;;;7.50;97.90;;;;;;5005376;28;20026;-84
2021/12/14 13:42:41;;;;;;;4.88;3.10;;;7.50;97.90;;;;;;5006633;28;20419;-83
2021/12/14 13:45:12;;;;;;;5.38;3.67;;;7.50;98.00;;;;;;5012917;28;20025;-82
2021/12/14 13:47:40;;;;;;;4.05;2.70;;;7.50;98.00;;;;;;5009424;28;20068;-82
2021/12/14 13:50:10;;;;;;;5.15;3.60;;;7.50;98.20;;;;;;4997396;28;20018;-84
2021/12/14 13:52:36;;;;;;;6.35;4.03;;;7.60;98.10;;;;;;4999783;28;20053;-82
2021/12/14 13:55:24;;;;;;;4.25;3.53;;;7.60;97.90;;;;;;4999034;28;20037;-85
2021/12/14 13:58:18;;;;;;;4.95;3.97;;;7.60;97.90;;;;;;4999550;28;20042;-83
2021/12/14 14:00:47;;;;;;;4.90;3.60;;;7.60;97.70;;;;;;5000075;28;20046;-82
2021/12/14 14:03:14;;;;;;;3.97;2.83;;;7.60;97.30;;;;;;4993485;28;20049;-84
2021/12/14 14:05:42;;;;;;;4.28;3.30;;;7.60;97.50;;;;;;4987463;28;20038;-83
2021/12/14 14:08:22;;;;;;;;;;;;;;;;;;;;;
2021/12/14 14:10:53;;;;;;;5.00;3.15;;;7.50;97.50;;;;;;5005387;28;20086;-84
2021/12/14 14:13:31;;;;;;;6.43;3.63;;;7.50;97.40;;;;;;4988080;28;20069;-85
2021/12/14 14:15:59;;;;;;;5.03;2.95;;;7.40;97.40;;;;;;5011437;28;20053;-82
2021/12/14 14:18:29;;;;;;;3.50;3.00;;;7.40;97.50;;;;;;5007061;28;20056;-84
2021/12/14 14:20:55;;;;;;;4.38;3.00;;;7.30;97.60;;;;;;5024980;28;20030;-83
2021/12/14 14:23:33;;;;;;;3.97;2.72;;;7.30;97.80;;;;;;5007100;28;20684;-81